createdAt,value
2023-01-12T00:01:30.506Z,101046.94
2023-01-12T00:03:57.293Z,101041.69
2023-01-12T00:06:24.229Z,101038.16
2023-01-12T00:08:51.880Z,101039.00
2023-01-12T00:11:19.053Z,101026.75
2023-01-12T00:13:46.698Z,101032.00
2023-01-12T00:16:37.983Z,101032.75
2023-01-12T00:19:13.480Z,101037.16
2023-01-12T00:22:13.016Z,101027.53
2023-01-12T00:24:41.437Z,101022.28
2023-01-12T00:27:10.499Z,101010.97
2023-01-12T00:29:37.315Z,101017.03
2023-01-12T00:32:05.234Z,101010.09
2023-01-12T00:34:31.699Z,101008.44
2023-01-12T00:37:00.223Z,101010.09
2023-01-12T00:39:26.922Z,101003.09
2023-01-12T00:42:11.888Z,101004.84
2023-01-12T00:44:57.135Z,100997.00
2023-01-12T00:47:23.599Z,100988.38
2023-01-12T00:49:50.150Z,100991.75
2023-01-12T00:52:29.917Z,100978.66
2023-01-12T00:54:57.950Z,100987.47
2023-01-12T00:57:24.411Z,100989.13
2023-01-12T00:59:54.855Z,100977.75
2023-01-12T01:02:21.395Z,100982.22
2023-01-12T01:04:47.889Z,100969.88
2023-01-12T01:07:15.988Z,100976.03
2023-01-12T01:09:43.181Z,100969.13
2023-01-12T01:12:09.862Z,100974.38
2023-01-12T01:14:36.939Z,100971.81
2023-01-12T01:17:03.377Z,100960.47
2023-01-12T01:19:29.750Z,100960.47
2023-01-12T01:21:56.188Z,100956.16
2023-01-12T01:24:23.652Z,100945.69
2023-01-12T01:26:51.470Z,100957.94
2023-01-12T01:29:18.477Z,100938.75
2023-01-12T01:31:47.601Z,100943.97
2023-01-12T01:34:14.367Z,100937.81
2023-01-12T01:36:40.798Z,100928.22
2023-01-12T01:39:07.202Z,100923.03
2023-01-12T01:41:33.768Z,100920.34
2023-01-12T01:44:02.829Z,100912.41
2023-01-12T01:46:50.605Z,100916.72
2023-01-12T01:49:34.650Z,100905.47
2023-01-12T01:52:07.673Z,100902.75
2023-01-12T01:54:40.069Z,100900.06
2023-01-12T01:57:08.761Z,100900.94
2023-01-12T01:59:39.312Z,100895.69
2023-01-12T02:02:06.629Z,100889.59
2023-01-12T02:04:33.195Z,100885.22
2023-01-12T02:07:01.479Z,100877.25
2023-01-12T02:09:30.525Z,100882.50
2023-01-12T02:12:16.429Z,100872.94
2023-01-12T02:15:04.209Z,100883.28
2023-01-12T02:17:53.043Z,100861.47
2023-01-12T02:20:40.439Z,100870.19
2023-01-12T02:23:22.216Z,100874.56
2023-01-12T02:26:07.262Z,100859.72
2023-01-12T02:28:47.671Z,100855.38
2023-01-12T02:31:26.929Z,100851.06
2023-01-12T02:34:14.329Z,100847.66
2023-01-12T02:37:04.238Z,100842.50
2023-01-12T02:39:41.916Z,100837.34
2023-01-12T02:42:41.478Z,100835.66
2023-01-12T02:45:26.117Z,100816.41
2023-01-12T02:48:07.913Z,100809.47
2023-01-12T02:50:43.864Z,100805.13
2023-01-12T02:53:23.176Z,100801.69
2023-01-12T02:55:51.148Z,100811.25
2023-01-12T02:58:20.693Z,100800.84
2023-01-12T03:00:50.318Z,100779.91
2023-01-12T03:03:18.641Z,100785.97
2023-01-12T03:05:45.184Z,100778.94
2023-01-12T03:08:16.202Z,100771.94
2023-01-12T03:11:13.060Z,100764.19
2023-01-12T03:13:45.062Z,100778.94
2023-01-12T03:16:16.534Z,100758.78
2023-01-12T03:18:52.060Z,100765.78
2023-01-12T03:21:26.562Z,100743.13
2023-01-12T03:24:00.746Z,100742.22
2023-01-12T03:26:30.141Z,100749.22
2023-01-12T03:29:05.595Z,100746.59
2023-01-12T03:31:32.393Z,100733.50
2023-01-12T03:33:59.410Z,100723.94
2023-01-12T03:37:06.565Z,100715.25
2023-01-12T03:39:51.337Z,100703.16
2023-01-12T03:42:26.221Z,100716.16
2023-01-12T03:45:11.119Z,100698.75
2023-01-12T03:47:41.111Z,100683.91
2023-01-12T03:50:14.412Z,100681.38
2023-01-12T03:52:43.411Z,100663.09
2023-01-12T03:55:14.423Z,100672.75
2023-01-12T03:57:43.557Z,100651.88
2023-01-12T04:00:12.266Z,100620.34
2023-01-12T04:02:38.738Z,100620.44
2023-01-12T04:05:08.016Z,100591.63
2023-01-12T04:07:34.384Z,100574.19
2023-01-12T04:10:00.829Z,100562.03
2023-01-12T04:12:27.189Z,100565.56
2023-01-12T04:14:53.577Z,100550.81
2023-01-12T04:17:24.156Z,100532.47
2023-01-12T04:19:51.946Z,100524.63
2023-01-12T04:22:37.558Z,100526.47
2023-01-12T04:25:04.592Z,100513.38
2023-01-12T04:27:30.945Z,100506.44
2023-01-12T04:29:57.395Z,100515.06
2023-01-12T04:32:23.742Z,100502.91
2023-01-12T04:34:50.132Z,100489.91
2023-01-12T04:37:16.860Z,100481.94
2023-01-12T04:39:43.221Z,100464.53
2023-01-12T04:42:29.625Z,100460.22
2023-01-12T04:44:55.972Z,100452.38
2023-01-12T04:47:23.849Z,100476.91
2023-01-12T04:49:50.272Z,100469.97
2023-01-12T04:52:16.615Z,100469.97
2023-01-12T04:54:42.973Z,100453.31
2023-01-12T04:57:09.312Z,100466.22
2023-01-12T04:59:35.632Z,100441.72
2023-01-12T05:02:02.097Z,100433.88
2023-01-12T05:04:29.036Z,100438.25
2023-01-12T05:06:55.434Z,100422.47
2023-01-12T05:09:40.243Z,100432.00
2023-01-12T05:12:06.672Z,100417.16
2023-01-12T05:14:33.209Z,100410.13
2023-01-12T05:16:59.815Z,100444.97
2023-01-12T05:19:26.213Z,100410.97
2023-01-12T05:21:52.670Z,100422.28
2023-01-12T05:24:19.170Z,100420.53
2023-01-12T05:26:45.522Z,100396.97
2023-01-12T05:29:12.398Z,100436.19
2023-01-12T05:31:38.770Z,100439.72
2023-01-12T05:34:05.144Z,100422.28
2023-01-12T05:36:31.582Z,100418.78
2023-01-12T05:38:57.919Z,100415.22
2023-01-12T05:41:24.316Z,100428.22
2023-01-12T05:43:51.091Z,100428.22
2023-01-12T05:46:26.339Z,100440.41
2023-01-12T05:48:55.231Z,100432.59
2023-01-12T05:51:23.494Z,100411.59
2023-01-12T05:53:49.979Z,100390.53
2023-01-12T05:56:27.544Z,100401.00
2023-01-12T05:58:59.062Z,100395.78
2023-01-12T06:01:26.028Z,100419.34
2023-01-12T06:03:54.963Z,100415.81
2023-01-12T06:06:23.710Z,100429.81
2023-01-12T06:08:52.634Z,100420.19
2023-01-12T06:11:37.866Z,100420.19
2023-01-12T06:14:04.786Z,100413.19
2023-01-12T06:16:31.571Z,100420.09
2023-01-12T06:18:57.997Z,100429.63
2023-01-12T06:21:25.052Z,100426.19
2023-01-12T06:23:52.002Z,100426.09
2023-01-12T06:26:18.412Z,100440.00
2023-01-12T06:28:44.859Z,100445.25
2023-01-12T06:31:12.754Z,100446.13
2023-01-12T06:33:39.237Z,100444.22
2023-01-12T06:36:06.319Z,100450.34
2023-01-12T06:38:34.124Z,100449.47
2023-01-12T06:41:29.350Z,100457.16
2023-01-12T06:43:56.433Z,100451.94
2023-01-12T06:46:22.866Z,100451.00
2023-01-12T06:48:49.272Z,100455.28
2023-01-12T06:51:15.720Z,100455.22
2023-01-12T06:53:42.057Z,100464.75
2023-01-12T06:56:08.562Z,100462.13
2023-01-12T06:58:34.971Z,100459.44
2023-01-12T07:01:02.412Z,100457.56
2023-01-12T07:03:28.852Z,100459.25
2023-01-12T07:05:59.176Z,100462.63
2023-01-12T07:08:25.900Z,100456.38
2023-01-12T07:10:52.630Z,100465.88
2023-01-12T07:13:18.959Z,100471.06
2023-01-12T07:15:45.466Z,100469.19
2023-01-12T07:18:11.833Z,100456.84
2023-01-12T07:20:38.225Z,100458.53
2023-01-12T07:23:04.777Z,100476.69
2023-01-12T07:25:31.164Z,100466.09
2023-01-12T07:27:58.437Z,100473.03
2023-01-12T07:30:26.751Z,100479.16
2023-01-12T07:32:53.239Z,100472.78
2023-01-12T07:35:19.885Z,100477.09
2023-01-12T07:37:50.793Z,100477.00
2023-01-12T07:40:17.979Z,100480.34
2023-01-12T07:42:44.422Z,100492.63
2023-01-12T07:45:11.646Z,100474.19
2023-01-12T07:47:38.080Z,100488.88
2023-01-12T07:50:05.184Z,100480.84
2023-01-12T07:52:31.761Z,100480.84
2023-01-12T07:54:58.260Z,100491.25
2023-01-12T07:57:24.759Z,100497.16
2023-01-12T07:59:51.104Z,100491.50
2023-01-12T08:02:18.177Z,100497.53
2023-01-12T08:04:45.419Z,100493.97
2023-01-12T08:07:12.796Z,100508.59
2023-01-12T08:09:39.253Z,100505.03
2023-01-12T08:12:06.097Z,100512.69
2023-01-12T08:14:39.294Z,100506.53
2023-01-12T08:17:15.725Z,100509.72
2023-01-12T08:20:00.393Z,100513.09
2023-01-12T08:22:37.637Z,100521.53
2023-01-12T08:25:09.790Z,100524.72
2023-01-12T08:27:39.785Z,100526.41
2023-01-12T08:30:09.015Z,100531.56
2023-01-12T08:32:37.017Z,100528.06
2023-01-12T08:35:04.938Z,100533.25
2023-01-12T08:37:33.742Z,100539.22
2023-01-12T08:40:00.895Z,100539.22
2023-01-12T08:42:29.252Z,100539.06
2023-01-12T08:44:57.255Z,100544.22
2023-01-12T08:47:27.333Z,100533.63
2023-01-12T08:49:54.644Z,100534.28
2023-01-12T08:52:21.438Z,100552.56
2023-01-12T08:54:48.142Z,100546.38
2023-01-12T08:57:16.219Z,100549.00
2023-01-12T08:59:42.868Z,100559.38
2023-01-12T09:02:12.653Z,100561.84
2023-01-12T09:04:40.394Z,100560.97
2023-01-12T09:07:08.084Z,100562.78
2023-01-12T09:09:34.851Z,100567.94
2023-01-12T09:12:01.456Z,100569.53
2023-01-12T09:14:28.031Z,100576.47
2023-01-12T09:16:56.823Z,100580.78
2023-01-12T09:19:23.395Z,100580.78
2023-01-12T09:21:49.846Z,100593.81
2023-01-12T09:24:16.355Z,100599.88
2023-01-12T09:26:44.960Z,100583.09
2023-01-12T09:29:13.115Z,100590.88
2023-01-12T09:31:42.350Z,100589.94
2023-01-12T09:34:09.077Z,100593.44
2023-01-12T09:36:37.143Z,100595.97
2023-01-12T09:39:04.722Z,100601.09
2023-01-12T09:41:58.545Z,100599.31
2023-01-12T09:44:55.114Z,100607.19
2023-01-12T09:47:48.412Z,100602.81
2023-01-12T09:50:25.882Z,100607.13
2023-01-12T09:52:57.996Z,100614.91
2023-01-12T09:55:32.063Z,100611.34
2023-01-12T09:58:24.180Z,100623.44
2023-01-12T10:00:52.101Z,100625.09
2023-01-12T10:03:29.377Z,100638.22
2023-01-12T10:05:59.163Z,100625.03
2023-01-12T10:08:42.497Z,100625.84
2023-01-12T10:11:16.819Z,100625.84
2023-01-12T10:13:50.900Z,100631.94
2023-01-12T10:16:31.367Z,100631.00
2023-01-12T10:19:04.817Z,100637.03
2023-01-12T10:21:32.643Z,100638.72
2023-01-12T10:23:59.088Z,100643.97
2023-01-12T10:26:33.395Z,100644.81
2023-01-12T10:29:02.537Z,100643.78
2023-01-12T10:31:29.075Z,100648.81
2023-01-12T10:34:08.469Z,100645.25
2023-01-12T10:36:41.884Z,100654.06
2023-01-12T10:39:30.901Z,100649.69
2023-01-12T10:42:41.540Z,100645.25
2023-01-12T10:45:23.036Z,100655.78
2023-01-12T10:47:53.008Z,100654.06
2023-01-12T10:50:32.705Z,100654.06
2023-01-12T10:53:05.792Z,100652.31
2023-01-12T10:55:34.943Z,100653.25
2023-01-12T10:58:01.729Z,100656.69
2023-01-12T11:00:29.747Z,100661.88
2023-01-12T11:02:56.468Z,100649.59
2023-01-12T11:05:36.709Z,100659.16
2023-01-12T11:08:17.889Z,100646.03
2023-01-12T11:10:44.391Z,100650.50
2023-01-12T11:13:26.631Z,100656.69
2023-01-12T11:16:20.710Z,100647.88
2023-01-12T11:18:56.103Z,100649.59
2023-01-12T11:21:27.761Z,100641.72
2023-01-12T11:24:10.265Z,100631.19
2023-01-12T11:26:48.311Z,100635.63
2023-01-12T11:29:23.730Z,100646.97
2023-01-12T11:31:57.544Z,100632.03
2023-01-12T11:34:29.550Z,100637.38
2023-01-12T11:37:05.862Z,100630.28
2023-01-12T11:39:35.315Z,100638.97
2023-01-12T11:42:22.892Z,100625.03
2023-01-12T11:44:57.108Z,100630.28
2023-01-12T11:47:35.927Z,100622.41
2023-01-12T11:50:11.419Z,100621.47
2023-01-12T11:52:38.286Z,100630.16
2023-01-12T11:55:05.030Z,100624.09
2023-01-12T11:58:00.679Z,100624.09
2023-01-12T12:00:45.560Z,100622.19
2023-01-12T12:03:44.147Z,100620.50
2023-01-12T12:06:25.528Z,100620.50
2023-01-12T12:09:10.790Z,100609.06
2023-01-12T12:11:53.862Z,100616.09
2023-01-12T12:14:44.062Z,100608.13
2023-01-12T12:17:28.179Z,100612.53
2023-01-12T12:20:13.298Z,100615.19
2023-01-12T12:22:48.800Z,100606.38
2023-01-12T12:25:58.114Z,100609.81
2023-01-12T12:28:47.210Z,100601.94
2023-01-12T12:31:29.080Z,100594.06
2023-01-12T12:34:16.792Z,100594.06
2023-01-12T12:36:54.913Z,100598.38
2023-01-12T12:39:35.316Z,100590.50
2023-01-12T12:42:44.625Z,100587.88
2023-01-12T12:45:16.641Z,100590.41
2023-01-12T12:47:59.325Z,100585.06
2023-01-12T12:53:07.426Z,100581.59
2023-01-12T12:55:35.716Z,100580.66
2023-01-12T12:58:05.959Z,100577.16
2023-01-12T13:00:42.573Z,100571.91
2023-01-12T13:03:10.323Z,100579.78
2023-01-12T13:05:44.996Z,100573.72
2023-01-12T13:08:27.027Z,100567.59
2023-01-12T13:10:56.091Z,100569.50
2023-01-12T13:13:25.998Z,100564.34
2023-01-12T13:16:18.092Z,100560.84
2023-01-12T13:18:50.505Z,100553.91
2023-01-12T13:21:55.919Z,100547.81
2023-01-12T13:24:26.878Z,100546.97
2023-01-12T13:26:53.927Z,100547.81
2023-01-12T13:29:23.157Z,100540.88
2023-01-12T13:31:50.750Z,100545.31
2023-01-12T13:34:35.427Z,100546.97
2023-01-12T13:37:31.517Z,100525.97
2023-01-12T13:40:10.337Z,100533.84
2023-01-12T13:42:55.812Z,100529.44
2023-01-12T13:45:23.116Z,100530.28
2023-01-12T13:47:52.398Z,100530.28
2023-01-12T13:50:22.260Z,100522.41
2023-01-12T13:52:59.694Z,100526.72
2023-01-12T13:55:32.095Z,100526.72
2023-01-12T13:58:16.767Z,100528.41
2023-01-12T14:00:52.983Z,100523.16
2023-01-12T14:03:46.646Z,100530.22
2023-01-12T14:06:25.326Z,100524.09
2023-01-12T14:09:11.944Z,100517.16
2023-01-12T14:11:51.166Z,100524.09
2023-01-12T14:14:55.969Z,100527.66
2023-01-12T14:17:49.365Z,100533.00
2023-01-12T14:20:17.272Z,100519.03
2023-01-12T14:22:45.959Z,100523.34
2023-01-12T14:25:20.991Z,100519.97
2023-01-12T14:27:51.035Z,100515.66
2023-01-12T14:30:17.629Z,100517.47
2023-01-12T14:32:45.994Z,100517.47
2023-01-12T14:35:31.311Z,100511.34
2023-01-12T14:38:00.788Z,100519.22
2023-01-12T14:40:32.515Z,100507.88
2023-01-12T14:43:19.606Z,100507.03
2023-01-12T14:46:27.785Z,100508.72
2023-01-12T14:49:17.903Z,100518.38
2023-01-12T14:52:17.574Z,100515.75
2023-01-12T14:54:44.246Z,100512.28
2023-01-12T14:57:27.691Z,100509.66
2023-01-12T14:59:54.669Z,100507.03
2023-01-12T15:02:25.539Z,100512.28
2023-01-12T15:05:03.035Z,100514.91
2023-01-12T15:07:58.857Z,100503.47
2023-01-12T15:10:37.186Z,100493.91
2023-01-12T15:13:22.848Z,100483.41
2023-01-12T15:16:10.261Z,100482.56
2023-01-12T15:18:55.664Z,100495.59
2023-01-12T15:21:41.826Z,100480.78
2023-01-12T15:24:49.041Z,100482.56
2023-01-12T15:27:18.619Z,100479.84
2023-01-12T15:29:45.391Z,100495.59
2023-01-12T15:32:47.337Z,100491.28
2023-01-12T15:35:26.460Z,100492.97
2023-01-12T15:37:55.154Z,100480.78
2023-01-12T15:40:22.690Z,100487.00
2023-01-12T15:42:53.000Z,100482.47
2023-01-12T15:45:31.703Z,100480.78
2023-01-12T15:47:58.087Z,100481.63
2023-01-12T15:50:24.614Z,100478.16
2023-01-12T15:52:51.226Z,100479.84
2023-01-12T15:55:20.265Z,100474.69
2023-01-12T15:57:51.247Z,100482.47
2023-01-12T16:00:23.464Z,100480.78
2023-01-12T16:02:51.801Z,100488.66
2023-01-12T16:05:21.635Z,100490.44
2023-01-12T16:07:48.841Z,100486.03
2023-01-12T16:10:16.430Z,100487.81
2023-01-12T16:12:44.059Z,100479.09
2023-01-12T16:15:17.227Z,100487.00
2023-01-12T16:17:43.865Z,100494.88
2023-01-12T16:20:11.662Z,100504.50
2023-01-12T16:22:38.328Z,100488.75
2023-01-12T16:25:05.218Z,100486.03
2023-01-12T16:27:32.298Z,100493.19
2023-01-12T16:29:58.853Z,100496.63
2023-01-12T16:32:26.718Z,100494.88
2023-01-12T16:34:53.497Z,100499.25
2023-01-12T16:37:22.901Z,100494.00
2023-01-12T16:39:49.947Z,100494.94
2023-01-12T16:42:16.356Z,100501.06
2023-01-12T16:44:42.710Z,100503.69
2023-01-12T16:47:14.582Z,100507.13
2023-01-12T16:49:41.635Z,100487.06
2023-01-12T16:52:10.757Z,100501.97
2023-01-12T16:54:42.297Z,100501.97
2023-01-12T16:57:09.990Z,100504.59
2023-01-12T16:59:36.529Z,100499.34
2023-01-12T17:02:07.878Z,100501.97
2023-01-12T17:04:35.997Z,100484.44
2023-01-12T17:07:02.997Z,100493.19
2023-01-12T17:09:29.525Z,100484.38
2023-01-12T17:11:56.117Z,100480.88
2023-01-12T17:14:26.908Z,100490.53
2023-01-12T17:16:56.426Z,100483.50
2023-01-12T17:19:25.457Z,100487.00
2023-01-12T17:21:54.781Z,100485.28
2023-01-12T17:24:22.177Z,100481.75
2023-01-12T17:26:51.231Z,100481.75
2023-01-12T17:29:17.703Z,100478.25
2023-01-12T17:31:45.032Z,100483.41
2023-01-12T17:34:12.919Z,100468.59
2023-01-12T17:36:39.478Z,100474.69
2023-01-12T17:39:06.336Z,100475.53
2023-01-12T17:41:51.222Z,100481.75
2023-01-12T17:44:18.255Z,100473.84
2023-01-12T17:46:45.087Z,100488.66
2023-01-12T17:49:12.379Z,100480.88
2023-01-12T17:51:40.227Z,100477.41
2023-01-12T17:54:10.582Z,100487.91
2023-01-12T17:56:37.076Z,100487.00
2023-01-12T17:59:05.993Z,100500.19
2023-01-12T18:01:34.755Z,100488.75
2023-01-12T18:04:01.456Z,100494.00
2023-01-12T18:06:28.785Z,100494.88
2023-01-12T18:08:56.834Z,100493.19
2023-01-12T18:11:23.756Z,100495.81
2023-01-12T18:13:50.254Z,100498.41
2023-01-12T18:16:17.543Z,100488.75
2023-01-12T18:18:44.943Z,100489.63
2023-01-12T18:21:14.044Z,100483.50
2023-01-12T18:23:41.722Z,100482.66
2023-01-12T18:26:11.644Z,100477.41
2023-01-12T18:28:38.058Z,100485.19
2023-01-12T18:31:07.108Z,100470.25
2023-01-12T18:33:33.547Z,100468.59
2023-01-12T18:35:59.940Z,100463.34
2023-01-12T18:38:27.262Z,100468.59
2023-01-12T18:41:12.472Z,100467.66
2023-01-12T18:43:41.191Z,100471.22
2023-01-12T18:46:10.487Z,100469.53
2023-01-12T18:48:37.338Z,100474.78
2023-01-12T18:51:22.930Z,100476.56
2023-01-12T18:53:49.300Z,100479.19
2023-01-12T18:56:15.881Z,100473.09
2023-01-12T18:58:45.136Z,100482.66
2023-01-12T19:01:19.322Z,100457.44
2023-01-12T19:03:45.910Z,100468.78
2023-01-12T19:06:38.983Z,100474.91
2023-01-12T19:09:23.960Z,100487.06
2023-01-12T19:11:50.374Z,100470.59
2023-01-12T19:14:35.465Z,100475.06
2023-01-12T19:17:20.234Z,100469.94
2023-01-12T19:19:46.760Z,100469.94
2023-01-12T19:22:31.778Z,100465.59
2023-01-12T19:25:16.633Z,100458.50
2023-01-12T19:28:02.506Z,100448.94
2023-01-12T19:30:29.754Z,100458.50
2023-01-12T19:32:56.082Z,100453.25
2023-01-12T19:35:22.530Z,100442.75
2023-01-12T19:37:50.506Z,100454.06
2023-01-12T19:40:34.024Z,100448.94
2023-01-12T19:43:20.483Z,100448.00
2023-01-12T19:45:49.300Z,100437.50
2023-01-12T19:48:17.463Z,100442.75
2023-01-12T19:50:44.848Z,100436.63
2023-01-12T19:53:25.729Z,100432.25
2023-01-12T19:55:52.690Z,100439.19
2023-01-12T19:58:21.846Z,100422.56
2023-01-12T20:00:49.493Z,100428.69
2023-01-12T20:03:18.276Z,100426.88
2023-01-12T20:05:47.259Z,100433.94
2023-01-12T20:08:14.959Z,100432.25
2023-01-12T20:10:41.404Z,100420.88
2023-01-12T20:13:08.444Z,100424.47
2023-01-12T20:15:37.955Z,100426.22
2023-01-12T20:18:05.225Z,100440.28
2023-01-12T20:20:32.997Z,100436.00
2023-01-12T20:22:59.427Z,100430.00
2023-01-12T20:25:28.118Z,100438.81
2023-01-12T20:27:55.032Z,100429.25
2023-01-12T20:30:37.059Z,100424.00
2023-01-12T20:33:05.949Z,100417.81
2023-01-12T20:35:32.835Z,100407.41
2023-01-12T20:37:59.326Z,100393.34
2023-01-12T20:40:25.739Z,100382.00
2023-01-12T20:42:52.275Z,100427.47
2023-01-12T20:45:19.066Z,100449.41
2023-01-12T20:47:45.530Z,100431.88
2023-01-12T20:50:14.051Z,100424.97
2023-01-12T20:52:41.191Z,100418.94
2023-01-12T20:55:08.537Z,100429.44
2023-01-12T20:57:36.622Z,100435.63
2023-01-12T21:00:04.212Z,100430.38
2023-01-12T21:02:30.599Z,100444.44
2023-01-12T21:04:56.973Z,100441.00
2023-01-12T21:07:23.788Z,100448.03
2023-01-12T21:09:50.166Z,100444.75
2023-01-12T21:12:16.615Z,100422.16
2023-01-12T21:14:43.009Z,100423.22
2023-01-12T21:17:09.401Z,100431.19
2023-01-12T21:19:35.925Z,100435.69
2023-01-12T21:22:02.315Z,100434.84
2023-01-12T21:24:28.858Z,100420.69
2023-01-12T21:26:56.033Z,100412.81
2023-01-12T21:29:25.288Z,100410.09
2023-01-12T21:31:52.150Z,100407.63
2023-01-12T21:34:18.645Z,100412.16
2023-01-12T21:36:45.344Z,100414.03
2023-01-12T21:39:11.751Z,100408.78
2023-01-12T21:41:56.505Z,100418.44
2023-01-12T21:44:22.905Z,100408.88
2023-01-12T21:46:49.298Z,100410.84
2023-01-12T21:49:16.608Z,100419.47
2023-01-12T21:51:43.056Z,100417.78
2023-01-12T21:54:09.511Z,100421.34
2023-01-12T21:56:35.964Z,100423.88
2023-01-12T21:59:02.368Z,100433.53
2023-01-12T22:01:28.862Z,100418.81
2023-01-12T22:03:57.135Z,100433.72
2023-01-12T22:06:23.679Z,100448.63
2023-01-12T22:08:50.115Z,100445.25
2023-01-12T22:11:17.922Z,100448.81
2023-01-12T22:13:44.399Z,100446.28
2023-01-12T22:16:13.610Z,100442.94
2023-01-12T22:18:43.054Z,100449.22
2023-01-12T22:21:09.609Z,100461.47
2023-01-12T22:23:37.010Z,100454.63
2023-01-12T22:26:10.270Z,100459.03
2023-01-12T22:28:39.488Z,100453.69
2023-01-12T22:31:13.001Z,100463.34
2023-01-12T22:33:40.020Z,100469.53
2023-01-12T22:36:07.473Z,100469.63
2023-01-12T22:38:34.526Z,100469.63
2023-01-12T22:41:09.072Z,100471.31
2023-01-12T22:43:42.401Z,100491.44
2023-01-12T22:46:13.650Z,100474.13
2023-01-12T22:48:40.569Z,100473.28
2023-01-12T22:51:07.887Z,100463.81
2023-01-12T22:53:35.173Z,100485.84
2023-01-12T22:56:05.342Z,100492.84
2023-01-12T22:58:32.346Z,100480.69
2023-01-12T23:01:06.473Z,100486.97
2023-01-12T23:03:33.623Z,100490.53
2023-01-12T23:06:01.030Z,100487.91
2023-01-12T23:08:27.532Z,100485.38
2023-01-12T23:11:05.765Z,100479.38
2023-01-12T23:13:32.338Z,100477.59
2023-01-12T23:16:02.871Z,100483.69
2023-01-12T23:18:31.445Z,100485.53
2023-01-12T23:21:19.800Z,100487.25
2023-01-12T23:23:54.836Z,100480.19
2023-01-12T23:26:30.997Z,100478.44
2023-01-12T23:29:00.213Z,100488.00
2023-01-12T23:31:30.432Z,100488.06
2023-01-12T23:33:57.165Z,100493.31
2023-01-12T23:36:26.051Z,100489.84
2023-01-12T23:38:57.990Z,100484.88
2023-01-12T23:41:26.605Z,100494.44
2023-01-12T23:43:56.141Z,100484.22
2023-01-12T23:46:24.295Z,100482.56
2023-01-12T23:48:52.253Z,100476.75
2023-01-12T23:51:18.696Z,100479.53
2023-01-12T23:53:45.199Z,100476.34
2023-01-12T23:56:14.267Z,100471.09
2023-01-12T23:58:41.062Z,100480.09
